sensor_id;sensor_type;location;lat;lon;timestamp;temperature;humidity
37944;DHT22;23767;42.024;23.086;2024-01-07T00:01:35;12.80;99.90
37944;DHT22;23767;42.024;23.086;2024-01-07T00:04:01;12.80;99.90
37944;DHT22;23767;42.024;23.086;2024-01-07T00:06:26;12.80;99.90
37944;DHT22;23767;42.024;23.086;2024-01-07T00:08:52;12.80;99.90
37944;DHT22;23767;42.024;23.086;2024-01-07T00:11:17;12.90;99.90
37944;DHT22;23767;42.024;23.086;2024-01-07T00:13:43;12.90;99.90
37944;DHT22;23767;42.024;23.086;2024-01-07T00:16:09;13.00;99.90
37944;DHT22;23767;42.024;23.086;2024-01-07T00:18:34;13.00;99.90
37944;DHT22;23767;42.024;23.086;2024-01-07T00:21:00;12.90;99.90
37944;DHT22;23767;42.024;23.086;2024-01-07T00:23:26;12.90;99.90
37944;DHT22;23767;42.024;23.086;2024-01-07T00:25:51;12.80;99.90
37944;DHT22;23767;42.024;23.086;2024-01-07T00:28:17;12.80;99.90
37944;DHT22;23767;42.024;23.086;2024-01-07T00:30:43;12.80;99.90
37944;DHT22;23767;42.024;23.086;2024-01-07T00:33:08;12.80;99.90
37944;DHT22;23767;42.024;23.086;2024-01-07T00:35:34;12.90;99.90
37944;DHT22;23767;42.024;23.086;2024-01-07T00:37:59;12.90;99.90
37944;DHT22;23767;42.024;23.086;2024-01-07T00:40:25;12.90;99.90
37944;DHT22;23767;42.024;23.086;2024-01-07T00:42:52;13.00;99.90
37944;DHT22;23767;42.024;23.086;2024-01-07T00:45:20;13.00;99.90
37944;DHT22;23767;42.024;23.086;2024-01-07T00:47:47;12.90;99.90
37944;DHT22;23767;42.024;23.086;2024-01-07T00:50:12;12.90;99.90
37944;DHT22;23767;42.024;23.086;2024-01-07T00:52:38;12.80;99.90
37944;DHT22;23767;42.024;23.086;2024-01-07T00:55:05;12.70;99.90
37944;DHT22;23767;42.024;23.086;2024-01-07T00:57:32;12.50;99.90
37944;DHT22;23767;42.024;23.086;2024-01-07T00:59:59;12.60;99.90
37944;DHT22;23767;42.024;23.086;2024-01-07T01:02:25;12.60;99.90
37944;DHT22;23767;42.024;23.086;2024-01-07T01:04:50;12.60;99.90
37944;DHT22;23767;42.024;23.086;2024-01-07T01:07:16;12.70;99.90
37944;DHT22;23767;42.024;23.086;2024-01-07T01:09:42;12.80;99.90
37944;DHT22;23767;42.024;23.086;2024-01-07T01:12:07;12.70;99.90
37944;DHT22;23767;42.024;23.086;2024-01-07T01:14:33;12.60;99.90
37944;DHT22;23767;42.024;23.086;2024-01-07T01:16:59;12.50;99.90
37944;DHT22;23767;42.024;23.086;2024-01-07T01:19:24;12.40;99.90
37944;DHT22;23767;42.024;23.086;2024-01-07T01:21:50;12.40;99.90
37944;DHT22;23767;42.024;23.086;2024-01-07T01:24:16;12.30;99.90
37944;DHT22;23767;42.024;23.086;2024-01-07T01:26:41;12.30;99.90
37944;DHT22;23767;42.024;23.086;2024-01-07T01:29:07;12.20;99.90
37944;DHT22;23767;42.024;23.086;2024-01-07T01:31:33;12.20;99.90
37944;DHT22;23767;42.024;23.086;2024-01-07T01:33:58;12.20;99.90
37944;DHT22;23767;42.024;23.086;2024-01-07T01:36:25;12.20;99.90
37944;DHT22;23767;42.024;23.086;2024-01-07T01:38:51;12.30;99.90
37944;DHT22;23767;42.024;23.086;2024-01-07T01:41:17;12.40;99.90
37944;DHT22;23767;42.024;23.086;2024-01-07T01:43:43;12.50;99.90
37944;DHT22;23767;42.024;23.086;2024-01-07T01:46:08;12.50;99.90
37944;DHT22;23767;42.024;23.086;2024-01-07T01:48:36;12.40;99.90
37944;DHT22;23767;42.024;23.086;2024-01-07T01:51:02;12.40;99.90
37944;DHT22;23767;42.024;23.086;2024-01-07T01:53:28;12.50;99.90
37944;DHT22;23767;42.024;23.086;2024-01-07T01:55:57;12.60;99.90
37944;DHT22;23767;42.024;23.086;2024-01-07T01:58:23;12.50;99.90
37944;DHT22;23767;42.024;23.086;2024-01-07T02:00:49;12.50;99.90
37944;DHT22;23767;42.024;23.086;2024-01-07T02:03:18;12.30;99.90
37944;DHT22;23767;42.024;23.086;2024-01-07T02:05:45;12.20;99.90
37944;DHT22;23767;42.024;23.086;2024-01-07T02:08:11;11.80;99.90
37944;DHT22;23767;42.024;23.086;2024-01-07T02:10:37;11.70;99.90
37944;DHT22;23767;42.024;23.086;2024-01-07T02:13:03;11.40;99.90
37944;DHT22;23767;42.024;23.086;2024-01-07T02:15:30;11.30;99.90
37944;DHT22;23767;42.024;23.086;2024-01-07T02:17:55;11.20;99.90
37944;DHT22;23767;42.024;23.086;2024-01-07T02:20:21;11.00;99.90
37944;DHT22;23767;42.024;23.086;2024-01-07T02:22:47;11.00;99.90
37944;DHT22;23767;42.024;23.086;2024-01-07T02:25:12;11.00;99.90
37944;DHT22;23767;42.024;23.086;2024-01-07T02:27:38;11.00;99.90
37944;DHT22;23767;42.024;23.086;2024-01-07T02:30:04;10.90;99.90
37944;DHT22;23767;42.024;23.086;2024-01-07T02:32:30;10.90;99.90
37944;DHT22;23767;42.024;23.086;2024-01-07T02:35:00;10.90;99.90
37944;DHT22;23767;42.024;23.086;2024-01-07T02:37:25;10.90;99.90
37944;DHT22;23767;42.024;23.086;2024-01-07T02:39:51;10.90;99.90
37944;DHT22;23767;42.024;23.086;2024-01-07T02:42:17;10.90;99.90
37944;DHT22;23767;42.024;23.086;2024-01-07T02:44:42;10.90;99.90
37944;DHT22;23767;42.024;23.086;2024-01-07T02:47:08;10.60;99.90
37944;DHT22;23767;42.024;23.086;2024-01-07T02:49:34;10.30;99.90
37944;DHT22;23767;42.024;23.086;2024-01-07T02:51:59;10.20;99.90
37944;DHT22;23767;42.024;23.086;2024-01-07T02:54:25;10.10;99.90
37944;DHT22;23767;42.024;23.086;2024-01-07T02:56:51;10.10;99.90
37944;DHT22;23767;42.024;23.086;2024-01-07T02:59:16;10.10;99.90
37944;DHT22;23767;42.024;23.086;2024-01-07T03:01:42;10.10;99.90
37944;DHT22;23767;42.024;23.086;2024-01-07T03:04:10;10.10;99.90
37944;DHT22;23767;42.024;23.086;2024-01-07T03:06:36;10.10;99.90
37944;DHT22;23767;42.024;23.086;2024-01-07T03:09:01;10.20;99.90
37944;DHT22;23767;42.024;23.086;2024-01-07T03:11:28;10.10;99.90
37944;DHT22;23767;42.024;23.086;2024-01-07T03:13:57;10.20;99.90
37944;DHT22;23767;42.024;23.086;2024-01-07T03:16:25;10.20;99.90
37944;DHT22;23767;42.024;23.086;2024-01-07T03:18:53;10.10;99.90
37944;DHT22;23767;42.024;23.086;2024-01-07T03:21:22;10.20;99.90
37944;DHT22;23767;42.024;23.086;2024-01-07T03:23:49;10.10;99.90
37944;DHT22;23767;42.024;23.086;2024-01-07T03:26:19;10.20;99.90
37944;DHT22;23767;42.024;23.086;2024-01-07T03:28:45;10.20;99.90
37944;DHT22;23767;42.024;23.086;2024-01-07T03:31:13;10.20;99.90
37944;DHT22;23767;42.024;23.086;2024-01-07T03:33:40;10.10;99.90
37944;DHT22;23767;42.024;23.086;2024-01-07T03:36:10;10.00;99.90
37944;DHT22;23767;42.024;23.086;2024-01-07T03:38:37;9.90;99.90
37944;DHT22;23767;42.024;23.086;2024-01-07T03:41:03;9.90;99.90
37944;DHT22;23767;42.024;23.086;2024-01-07T03:43:29;9.90;99.90
37944;DHT22;23767;42.024;23.086;2024-01-07T03:45:55;9.80;99.90
37944;DHT22;23767;42.024;23.086;2024-01-07T03:48:20;9.80;99.90
37944;DHT22;23767;42.024;23.086;2024-01-07T03:50:46;9.80;99.90
37944;DHT22;23767;42.024;23.086;2024-01-07T03:53:12;9.90;99.90
37944;DHT22;23767;42.024;23.086;2024-01-07T03:55:38;10.00;99.90
37944;DHT22;23767;42.024;23.086;2024-01-07T03:58:04;10.10;99.90
37944;DHT22;23767;42.024;23.086;2024-01-07T04:00:31;10.20;99.90
37944;DHT22;23767;42.024;23.086;2024-01-07T04:02:57;10.30;99.90
37944;DHT22;23767;42.024;23.086;2024-01-07T04:05:22;10.30;99.90
37944;DHT22;23767;42.024;23.086;2024-01-07T04:07:48;10.30;99.90
37944;DHT22;23767;42.024;23.086;2024-01-07T04:10:18;10.40;99.90
37944;DHT22;23767;42.024;23.086;2024-01-07T04:12:44;10.50;99.90
37944;DHT22;23767;42.024;23.086;2024-01-07T04:15:11;10.40;99.90
37944;DHT22;23767;42.024;23.086;2024-01-07T04:17:37;10.40;99.90
37944;DHT22;23767;42.024;23.086;2024-01-07T04:20:03;10.40;99.90
37944;DHT22;23767;42.024;23.086;2024-01-07T04:22:29;10.40;99.90
37944;DHT22;23767;42.024;23.086;2024-01-07T04:24:54;10.40;99.90
37944;DHT22;23767;42.024;23.086;2024-01-07T04:27:20;10.40;99.90
37944;DHT22;23767;42.024;23.086;2024-01-07T04:29:45;10.40;99.90
37944;DHT22;23767;42.024;23.086;2024-01-07T04:32:11;10.40;99.90
37944;DHT22;23767;42.024;23.086;2024-01-07T04:34:37;10.40;99.90
37944;DHT22;23767;42.024;23.086;2024-01-07T04:37:03;10.40;99.90
37944;DHT22;23767;42.024;23.086;2024-01-07T04:39:28;10.40;99.90
37944;DHT22;23767;42.024;23.086;2024-01-07T04:41:54;10.40;99.90
37944;DHT22;23767;42.024;23.086;2024-01-07T04:44:19;10.40;99.90
37944;DHT22;23767;42.024;23.086;2024-01-07T04:46:47;10.20;99.90
37944;DHT22;23767;42.024;23.086;2024-01-07T04:49:12;10.00;99.90
37944;DHT22;23767;42.024;23.086;2024-01-07T04:51:38;9.90;99.90
37944;DHT22;23767;42.024;23.086;2024-01-07T04:54:04;9.80;99.90
37944;DHT22;23767;42.024;23.086;2024-01-07T04:56:31;9.60;99.90
37944;DHT22;23767;42.024;23.086;2024-01-07T04:58:57;9.60;99.90
37944;DHT22;23767;42.024;23.086;2024-01-07T05:01:23;9.60;99.90
37944;DHT22;23767;42.024;23.086;2024-01-07T05:03:48;9.60;99.90
37944;DHT22;23767;42.024;23.086;2024-01-07T05:06:14;9.50;99.90
37944;DHT22;23767;42.024;23.086;2024-01-07T05:08:40;9.60;99.90
37944;DHT22;23767;42.024;23.086;2024-01-07T05:11:06;9.70;99.90
37944;DHT22;23767;42.024;23.086;2024-01-07T05:13:33;9.70;99.90
37944;DHT22;23767;42.024;23.086;2024-01-07T05:15:58;9.80;99.90
37944;DHT22;23767;42.024;23.086;2024-01-07T05:18:24;9.80;99.90
37944;DHT22;23767;42.024;23.086;2024-01-07T05:20:51;9.80;99.90
37944;DHT22;23767;42.024;23.086;2024-01-07T05:23:17;9.90;99.90
37944;DHT22;23767;42.024;23.086;2024-01-07T05:25:43;10.00;99.90
37944;DHT22;23767;42.024;23.086;2024-01-07T05:28:09;10.00;99.90
37944;DHT22;23767;42.024;23.086;2024-01-07T05:30:34;9.90;99.90
37944;DHT22;23767;42.024;23.086;2024-01-07T05:33:00;9.80;99.90
37944;DHT22;23767;42.024;23.086;2024-01-07T05:35:26;9.80;99.90
37944;DHT22;23767;42.024;23.086;2024-01-07T05:37:51;9.60;99.90
37944;DHT22;23767;42.024;23.086;2024-01-07T05:40:17;9.60;99.90
37944;DHT22;23767;42.024;23.086;2024-01-07T05:42:43;9.60;99.90
37944;DHT22;23767;42.024;23.086;2024-01-07T05:45:08;9.50;99.90
37944;DHT22;23767;42.024;23.086;2024-01-07T05:47:34;9.40;99.90
37944;DHT22;23767;42.024;23.086;2024-01-07T05:50:00;9.40;99.90
37944;DHT22;23767;42.024;23.086;2024-01-07T05:52:26;9.40;99.90
37944;DHT22;23767;42.024;23.086;2024-01-07T05:54:52;9.50;99.90
37944;DHT22;23767;42.024;23.086;2024-01-07T05:57:17;9.50;99.90
37944;DHT22;23767;42.024;23.086;2024-01-07T05:59:44;9.50;99.90
37944;DHT22;23767;42.024;23.086;2024-01-07T06:02:10;9.60;99.90
37944;DHT22;23767;42.024;23.086;2024-01-07T06:04:37;9.60;99.90
37944;DHT22;23767;42.024;23.086;2024-01-07T06:07:03;9.70;99.90
37944;DHT22;23767;42.024;23.086;2024-01-07T06:09:29;9.60;99.90
37944;DHT22;23767;42.024;23.086;2024-01-07T06:11:55;9.70;99.90
37944;DHT22;23767;42.024;23.086;2024-01-07T06:14:22;9.80;99.90
37944;DHT22;23767;42.024;23.086;2024-01-07T06:16:47;9.70;99.90
37944;DHT22;23767;42.024;23.086;2024-01-07T06:19:13;9.70;99.90
37944;DHT22;23767;42.024;23.086;2024-01-07T06:21:40;9.70;99.90
37944;DHT22;23767;42.024;23.086;2024-01-07T06:24:08;9.70;99.90
37944;DHT22;23767;42.024;23.086;2024-01-07T06:26:34;9.70;99.90
37944;DHT22;23767;42.024;23.086;2024-01-07T06:29:00;9.60;99.90
37944;DHT22;23767;42.024;23.086;2024-01-07T06:31:26;9.60;99.90
37944;DHT22;23767;42.024;23.086;2024-01-07T06:33:52;9.60;99.90
37944;DHT22;23767;42.024;23.086;2024-01-07T06:36:18;9.60;99.90
37944;DHT22;23767;42.024;23.086;2024-01-07T06:38:43;9.70;99.90
37944;DHT22;23767;42.024;23.086;2024-01-07T06:41:11;9.70;99.90
37944;DHT22;23767;42.024;23.086;2024-01-07T06:43:37;9.70;99.90
37944;DHT22;23767;42.024;23.086;2024-01-07T06:46:02;9.80;99.90
37944;DHT22;23767;42.024;23.086;2024-01-07T06:48:28;9.80;99.90
37944;DHT22;23767;42.024;23.086;2024-01-07T06:50:54;9.80;99.90
37944;DHT22;23767;42.024;23.086;2024-01-07T06:53:19;9.90;99.90
37944;DHT22;23767;42.024;23.086;2024-01-07T06:55:45;9.90;99.90
37944;DHT22;23767;42.024;23.086;2024-01-07T06:58:11;10.00;99.90
37944;DHT22;23767;42.024;23.086;2024-01-07T07:00:36;10.00;99.90
37944;DHT22;23767;42.024;23.086;2024-01-07T07:03:02;10.00;99.90
37944;DHT22;23767;42.024;23.086;2024-01-07T07:05:28;10.10;99.90
37944;DHT22;23767;42.024;23.086;2024-01-07T07:07:53;10.20;99.90
37944;DHT22;23767;42.024;23.086;2024-01-07T07:10:19;10.20;99.90
37944;DHT22;23767;42.024;23.086;2024-01-07T07:12:44;10.30;99.90
37944;DHT22;23767;42.024;23.086;2024-01-07T07:15:10;10.40;99.90
37944;DHT22;23767;42.024;23.086;2024-01-07T07:17:39;10.60;99.90
37944;DHT22;23767;42.024;23.086;2024-01-07T07:20:05;10.60;99.90
37944;DHT22;23767;42.024;23.086;2024-01-07T07:22:31;10.70;99.90
37944;DHT22;23767;42.024;23.086;2024-01-07T07:24:57;10.70;99.90
37944;DHT22;23767;42.024;23.086;2024-01-07T07:27:22;10.70;99.90
37944;DHT22;23767;42.024;23.086;2024-01-07T07:29:49;10.70;99.90
37944;DHT22;23767;42.024;23.086;2024-01-07T07:32:15;10.70;99.90
37944;DHT22;23767;42.024;23.086;2024-01-07T07:34:41;10.70;99.90
37944;DHT22;23767;42.024;23.086;2024-01-07T07:37:06;10.70;99.90
37944;DHT22;23767;42.024;23.086;2024-01-07T07:39:32;10.80;99.90
37944;DHT22;23767;42.024;23.086;2024-01-07T07:41:58;10.90;99.90
37944;DHT22;23767;42.024;23.086;2024-01-07T07:44:24;11.00;99.90
37944;DHT22;23767;42.024;23.086;2024-01-07T07:46:49;11.10;99.90
37944;DHT22;23767;42.024;23.086;2024-01-07T07:49:15;11.10;99.90
37944;DHT22;23767;42.024;23.086;2024-01-07T07:51:43;11.20;99.90
37944;DHT22;23767;42.024;23.086;2024-01-07T07:54:09;11.30;99.90
37944;DHT22;23767;42.024;23.086;2024-01-07T07:56:35;11.30;99.90
37944;DHT22;23767;42.024;23.086;2024-01-07T07:59:02;11.30;99.90
37944;DHT22;23767;42.024;23.086;2024-01-07T08:01:28;11.30;99.90
37944;DHT22;23767;42.024;23.086;2024-01-07T08:03:53;11.40;99.90
37944;DHT22;23767;42.024;23.086;2024-01-07T08:06:19;11.20;99.90
37944;DHT22;23767;42.024;23.086;2024-01-07T08:08:45;11.10;99.90
37944;DHT22;23767;42.024;23.086;2024-01-07T08:11:10;11.20;99.90
37944;DHT22;23767;42.024;23.086;2024-01-07T08:13:37;11.30;99.90
37944;DHT22;23767;42.024;23.086;2024-01-07T08:16:04;11.40;99.90
37944;DHT22;23767;42.024;23.086;2024-01-07T08:18:29;11.50;99.90
37944;DHT22;23767;42.024;23.086;2024-01-07T08:20:55;11.70;99.90
37944;DHT22;23767;42.024;23.086;2024-01-07T08:23:21;11.60;99.90
37944;DHT22;23767;42.024;23.086;2024-01-07T08:25:47;11.60;99.90
37944;DHT22;23767;42.024;23.086;2024-01-07T08:28:12;11.70;99.90
37944;DHT22;23767;42.024;23.086;2024-01-07T08:30:38;11.70;99.90
37944;DHT22;23767;42.024;23.086;2024-01-07T08:33:04;11.80;99.90
37944;DHT22;23767;42.024;23.086;2024-01-07T08:35:29;11.70;99.90
37944;DHT22;23767;42.024;23.086;2024-01-07T08:37:55;11.70;99.90
37944;DHT22;23767;42.024;23.086;2024-01-07T08:40:21;11.70;99.90
37944;DHT22;23767;42.024;23.086;2024-01-07T08:42:46;11.70;99.90
37944;DHT22;23767;42.024;23.086;2024-01-07T08:45:12;11.60;99.90
37944;DHT22;23767;42.024;23.086;2024-01-07T08:47:38;11.60;99.90
37944;DHT22;23767;42.024;23.086;2024-01-07T08:50:05;11.60;99.90
37944;DHT22;23767;42.024;23.086;2024-01-07T08:52:30;11.50;99.90
37944;DHT22;23767;42.024;23.086;2024-01-07T08:54:56;11.60;99.90
37944;DHT22;23767;42.024;23.086;2024-01-07T08:57:22;11.60;99.90
37944;DHT22;23767;42.024;23.086;2024-01-07T08:59:47;11.70;99.90
37944;DHT22;23767;42.024;23.086;2024-01-07T09:02:13;11.60;99.90
37944;DHT22;23767;42.024;23.086;2024-01-07T09:04:39;11.50;99.90
37944;DHT22;23767;42.024;23.086;2024-01-07T09:07:05;11.70;99.90
37944;DHT22;23767;42.024;23.086;2024-01-07T09:09:30;11.70;99.90
37944;DHT22;23767;42.024;23.086;2024-01-07T09:11:56;11.90;99.90
37944;DHT22;23767;42.024;23.086;2024-01-07T09:14:23;12.00;99.90
37944;DHT22;23767;42.024;23.086;2024-01-07T09:16:50;12.00;99.90
37944;DHT22;23767;42.024;23.086;2024-01-07T09:19:16;12.00;99.90
37944;DHT22;23767;42.024;23.086;2024-01-07T09:21:43;12.00;99.90
37944;DHT22;23767;42.024;23.086;2024-01-07T09:24:09;11.90;99.90
37944;DHT22;23767;42.024;23.086;2024-01-07T09:26:34;11.90;99.90
37944;DHT22;23767;42.024;23.086;2024-01-07T09:29:00;11.90;99.90
37944;DHT22;23767;42.024;23.086;2024-01-07T09:31:27;11.90;99.90
37944;DHT22;23767;42.024;23.086;2024-01-07T09:33:52;12.00;99.90
37944;DHT22;23767;42.024;23.086;2024-01-07T09:36:18;12.00;99.90
37944;DHT22;23767;42.024;23.086;2024-01-07T09:38:44;12.10;99.90
37944;DHT22;23767;42.024;23.086;2024-01-07T09:41:10;12.20;99.90
37944;DHT22;23767;42.024;23.086;2024-01-07T09:43:35;12.30;99.90
37944;DHT22;23767;42.024;23.086;2024-01-07T09:46:02;12.40;99.90
37944;DHT22;23767;42.024;23.086;2024-01-07T09:48:28;12.40;99.90
37944;DHT22;23767;42.024;23.086;2024-01-07T09:50:55;12.40;99.90
37944;DHT22;23767;42.024;23.086;2024-01-07T09:53:25;12.40;99.90
37944;DHT22;23767;42.024;23.086;2024-01-07T09:58:36;12.50;99.90
37944;DHT22;23767;42.024;23.086;2024-01-07T10:01:01;12.60;99.90
37944;DHT22;23767;42.024;23.086;2024-01-07T10:03:30;12.80;99.90
37944;DHT22;23767;42.024;23.086;2024-01-07T10:05:56;12.90;99.90
37944;DHT22;23767;42.024;23.086;2024-01-07T10:08:21;13.10;99.90
37944;DHT22;23767;42.024;23.086;2024-01-07T10:10:48;13.10;99.90
37944;DHT22;23767;42.024;23.086;2024-01-07T10:13:14;13.20;99.90
37944;DHT22;23767;42.024;23.086;2024-01-07T10:15:40;13.30;99.90
37944;DHT22;23767;42.024;23.086;2024-01-07T10:18:06;13.30;99.90
37944;DHT22;23767;42.024;23.086;2024-01-07T10:20:33;13.30;99.90
37944;DHT22;23767;42.024;23.086;2024-01-07T10:23:03;13.40;99.90
37944;DHT22;23767;42.024;23.086;2024-01-07T10:25:32;13.40;99.90
37944;DHT22;23767;42.024;23.086;2024-01-07T10:28:02;13.60;99.90
37944;DHT22;23767;42.024;23.086;2024-01-07T10:30:28;13.70;99.90
37944;DHT22;23767;42.024;23.086;2024-01-07T10:32:58;13.70;99.90
37944;DHT22;23767;42.024;23.086;2024-01-07T10:35:33;13.60;99.90
37944;DHT22;23767;42.024;23.086;2024-01-07T10:38:00;13.70;99.90
37944;DHT22;23767;42.024;23.086;2024-01-07T10:40:27;13.80;99.90
37944;DHT22;23767;42.024;23.086;2024-01-07T10:42:54;13.90;99.90
37944;DHT22;23767;42.024;23.086;2024-01-07T10:45:21;14.00;99.90
37944;DHT22;23767;42.024;23.086;2024-01-07T10:47:50;13.90;99.90
37944;DHT22;23767;42.024;23.086;2024-01-07T10:50:17;13.90;99.90
37944;DHT22;23767;42.024;23.086;2024-01-07T10:52:48;13.90;99.90
37944;DHT22;23767;42.024;23.086;2024-01-07T10:55:15;13.90;99.90
37944;DHT22;23767;42.024;23.086;2024-01-07T10:57:44;13.80;99.90
37944;DHT22;23767;42.024;23.086;2024-01-07T11:00:13;13.80;99.90
37944;DHT22;23767;42.024;23.086;2024-01-07T11:03:14;13.80;99.90
37944;DHT22;23767;42.024;23.086;2024-01-07T11:05:54;13.80;99.90
37944;DHT22;23767;42.024;23.086;2024-01-07T11:08:31;13.90;99.90
37944;DHT22;23767;42.024;23.086;2024-01-07T11:11:05;14.00;99.90
37944;DHT22;23767;42.024;23.086;2024-01-07T11:13:40;14.10;99.90
37944;DHT22;23767;42.024;23.086;2024-01-07T11:16:08;14.10;99.90
37944;DHT22;23767;42.024;23.086;2024-01-07T11:18:38;14.10;99.90
37944;DHT22;23767;42.024;23.086;2024-01-07T11:21:05;14.20;99.90
37944;DHT22;23767;42.024;23.086;2024-01-07T11:23:32;14.20;99.90
37944;DHT22;23767;42.024;23.086;2024-01-07T11:26:07;14.20;99.90
37944;DHT22;23767;42.024;23.086;2024-01-07T11:28:54;14.20;99.90
37944;DHT22;23767;42.024;23.086;2024-01-07T11:34:06;14.40;99.90
37944;DHT22;23767;42.024;23.086;2024-01-07T11:36:36;14.40;99.90
37944;DHT22;23767;42.024;23.086;2024-01-07T11:39:03;14.20;99.90
37944;DHT22;23767;42.024;23.086;2024-01-07T11:41:32;14.00;99.90
37944;DHT22;23767;42.024;23.086;2024-01-07T11:43:59;13.90;99.90
37944;DHT22;23767;42.024;23.086;2024-01-07T11:46:29;13.80;99.90
37944;DHT22;23767;42.024;23.086;2024-01-07T11:48:58;13.60;99.90
37944;DHT22;23767;42.024;23.086;2024-01-07T11:51:28;13.60;99.90
37944;DHT22;23767;42.024;23.086;2024-01-07T11:53:57;13.70;99.90
37944;DHT22;23767;42.024;23.086;2024-01-07T11:56:24;13.70;99.90
37944;DHT22;23767;42.024;23.086;2024-01-07T11:58:50;13.80;99.90
37944;DHT22;23767;42.024;23.086;2024-01-07T12:01:16;13.90;99.90
37944;DHT22;23767;42.024;23.086;2024-01-07T12:03:44;13.90;99.90
37944;DHT22;23767;42.024;23.086;2024-01-07T12:06:10;13.80;99.90
37944;DHT22;23767;42.024;23.086;2024-01-07T12:08:45;13.70;99.90
37944;DHT22;23767;42.024;23.086;2024-01-07T12:11:13;13.60;99.90
37944;DHT22;23767;42.024;23.086;2024-01-07T12:13:39;13.70;99.90
37944;DHT22;23767;42.024;23.086;2024-01-07T12:16:05;13.70;99.90
37944;DHT22;23767;42.024;23.086;2024-01-07T12:18:31;13.70;99.90
37944;DHT22;23767;42.024;23.086;2024-01-07T12:20:58;13.70;99.90
37944;DHT22;23767;42.024;23.086;2024-01-07T12:23:28;13.70;99.90
37944;DHT22;23767;42.024;23.086;2024-01-07T12:25:54;13.70;99.90
37944;DHT22;23767;42.024;23.086;2024-01-07T12:28:21;13.60;99.90
37944;DHT22;23767;42.024;23.086;2024-01-07T12:30:50;13.60;99.90
37944;DHT22;23767;42.024;23.086;2024-01-07T12:33:25;13.40;99.90
37944;DHT22;23767;42.024;23.086;2024-01-07T12:35:51;13.40;99.90
37944;DHT22;23767;42.024;23.086;2024-01-07T12:38:26;13.30;99.90
37944;DHT22;23767;42.024;23.086;2024-01-07T12:40:55;13.30;99.90
37944;DHT22;23767;42.024;23.086;2024-01-07T12:43:21;13.40;99.90
37944;DHT22;23767;42.024;23.086;2024-01-07T12:45:50;13.40;99.90
37944;DHT22;23767;42.024;23.086;2024-01-07T12:48:16;13.40;99.90
37944;DHT22;23767;42.024;23.086;2024-01-07T12:50:41;13.40;99.90
37944;DHT22;23767;42.024;23.086;2024-01-07T12:53:07;13.30;99.90
37944;DHT22;23767;42.024;23.086;2024-01-07T12:55:33;13.40;99.90
37944;DHT22;23767;42.024;23.086;2024-01-07T12:57:59;13.40;99.90
37944;DHT22;23767;42.024;23.086;2024-01-07T13:00:25;13.30;99.90
37944;DHT22;23767;42.024;23.086;2024-01-07T13:02:54;13.20;99.90
37944;DHT22;23767;42.024;23.086;2024-01-07T13:05:19;13.10;99.90
37944;DHT22;23767;42.024;23.086;2024-01-07T13:07:46;13.00;99.90
37944;DHT22;23767;42.024;23.086;2024-01-07T13:10:12;13.00;99.90
37944;DHT22;23767;42.024;23.086;2024-01-07T13:12:39;12.90;99.90
37944;DHT22;23767;42.024;23.086;2024-01-07T13:15:05;13.00;99.90
37944;DHT22;23767;42.024;23.086;2024-01-07T13:17:31;13.10;99.90
37944;DHT22;23767;42.024;23.086;2024-01-07T13:20:01;13.10;99.90
37944;DHT22;23767;42.024;23.086;2024-01-07T13:22:27;13.10;99.90
37944;DHT22;23767;42.024;23.086;2024-01-07T13:24:52;13.30;99.90
37944;DHT22;23767;42.024;23.086;2024-01-07T13:27:22;13.40;99.90
37944;DHT22;23767;42.024;23.086;2024-01-07T13:29:49;13.40;99.90
37944;DHT22;23767;42.024;23.086;2024-01-07T13:32:14;13.50;99.90
37944;DHT22;23767;42.024;23.086;2024-01-07T13:34:44;13.60;99.90
37944;DHT22;23767;42.024;23.086;2024-01-07T13:37:10;13.70;99.90
37944;DHT22;23767;42.024;23.086;2024-01-07T13:39:36;13.80;99.90
37944;DHT22;23767;42.024;23.086;2024-01-07T13:42:02;13.80;99.90
37944;DHT22;23767;42.024;23.086;2024-01-07T13:44:28;13.80;99.90
37944;DHT22;23767;42.024;23.086;2024-01-07T13:46:53;13.70;99.90
37944;DHT22;23767;42.024;23.086;2024-01-07T13:49:19;13.80;99.90
37944;DHT22;23767;42.024;23.086;2024-01-07T13:51:45;13.80;99.90
37944;DHT22;23767;42.024;23.086;2024-01-07T13:54:11;13.80;99.90
37944;DHT22;23767;42.024;23.086;2024-01-07T13:56:42;13.70;99.90
37944;DHT22;23767;42.024;23.086;2024-01-07T13:59:10;13.70;99.90
37944;DHT22;23767;42.024;23.086;2024-01-07T14:01:36;13.50;99.90
37944;DHT22;23767;42.024;23.086;2024-01-07T14:04:02;13.50;99.90
37944;DHT22;23767;42.024;23.086;2024-01-07T14:06:28;13.40;99.90
37944;DHT22;23767;42.024;23.086;2024-01-07T14:08:53;13.20;99.90
37944;DHT22;23767;42.024;23.086;2024-01-07T14:11:20;13.10;99.90
37944;DHT22;23767;42.024;23.086;2024-01-07T14:13:46;13.00;99.90
37944;DHT22;23767;42.024;23.086;2024-01-07T14:16:12;12.80;99.90
37944;DHT22;23767;42.024;23.086;2024-01-07T14:18:38;12.70;99.90
37944;DHT22;23767;42.024;23.086;2024-01-07T14:21:05;12.60;99.90
37944;DHT22;23767;42.024;23.086;2024-01-07T14:23:32;12.50;99.90
37944;DHT22;23767;42.024;23.086;2024-01-07T14:25:59;12.50;99.90
37944;DHT22;23767;42.024;23.086;2024-01-07T14:28:25;12.40;99.90
37944;DHT22;23767;42.024;23.086;2024-01-07T14:30:51;12.40;99.90
37944;DHT22;23767;42.024;23.086;2024-01-07T14:33:17;12.30;99.90
37944;DHT22;23767;42.024;23.086;2024-01-07T14:35:43;12.20;99.90
37944;DHT22;23767;42.024;23.086;2024-01-07T14:38:09;12.20;99.90
37944;DHT22;23767;42.024;23.086;2024-01-07T14:40:35;12.20;99.90
37944;DHT22;23767;42.024;23.086;2024-01-07T14:43:01;12.10;99.90
37944;DHT22;23767;42.024;23.086;2024-01-07T14:45:27;12.10;99.90
37944;DHT22;23767;42.024;23.086;2024-01-07T14:47:53;12.10;99.90
37944;DHT22;23767;42.024;23.086;2024-01-07T14:50:20;12.00;99.90
37944;DHT22;23767;42.024;23.086;2024-01-07T14:52:46;12.00;99.90
37944;DHT22;23767;42.024;23.086;2024-01-07T14:55:13;12.00;99.90
37944;DHT22;23767;42.024;23.086;2024-01-07T14:57:41;12.00;99.90
37944;DHT22;23767;42.024;23.086;2024-01-07T15:00:07;12.00;99.90
37944;DHT22;23767;42.024;23.086;2024-01-07T15:02:34;12.00;99.90
37944;DHT22;23767;42.024;23.086;2024-01-07T15:05:00;12.00;99.90
37944;DHT22;23767;42.024;23.086;2024-01-07T15:07:26;11.90;99.90
37944;DHT22;23767;42.024;23.086;2024-01-07T15:09:52;11.90;99.90
37944;DHT22;23767;42.024;23.086;2024-01-07T15:12:18;11.90;99.90
37944;DHT22;23767;42.024;23.086;2024-01-07T15:14:44;11.90;99.90
37944;DHT22;23767;42.024;23.086;2024-01-07T15:17:10;11.90;99.90
37944;DHT22;23767;42.024;23.086;2024-01-07T15:19:35;12.00;99.90